Time;durP1;ratioP1;P1;durP2;ratioP2;P2;SDS_P1;SDS_P2;PMS_P1;PMS_P2;Temp;Humidity;BMP_temperature;BMP_pressure;BME280_temperature;BME280_humidity;BME280_pressure;Samples;Min_cycle;Max_cycle;Signal;HPM_P1;HPM_P2
2021/09/07 00:00:47;;;;;;;9.70;5.75;;;22.60;60.20;;;;;;5019966;28;20022;-60
2021/09/07 00:03:14;;;;;;;8.02;5.88;;;22.60;60.10;;;;;;5054405;28;20049;-60
2021/09/07 00:05:40;;;;;;;9.65;5.68;;;22.60;60.10;;;;;;5030907;28;20042;-60
2021/09/07 00:08:07;;;;;;;7.43;5.50;;;22.60;60.20;;;;;;5030523;28;20030;-61
2021/09/07 00:10:33;;;;;;;8.52;5.38;;;22.60;60.10;;;;;;5033539;28;20034;-60
2021/09/07 00:13:00;;;;;;;8.43;5.95;;;22.60;60.10;;;;;;5032992;28;20361;-60
2021/09/07 00:15:26;;;;;;;8.15;5.90;;;22.60;60.00;;;;;;5033035;28;20048;-60
2021/09/07 00:17:53;;;;;;;6.70;5.40;;;22.60;60.00;;;;;;5021599;28;20046;-61
2021/09/07 00:20:23;;;;;;;6.30;5.63;;;22.60;59.90;;;;;;5033845;28;20040;-60
2021/09/07 00:22:50;;;;;;;8.82;5.65;;;22.60;59.90;;;;;;5033831;28;20054;-60
2021/09/07 00:25:17;;;;;;;8.27;5.40;;;22.60;60.00;;;;;;5034009;28;20033;-61
2021/09/07 00:27:44;;;;;;;8.15;6.13;;;22.60;60.00;;;;;;5023768;28;20501;-60
2021/09/07 00:30:12;;;;;;;7.10;5.65;;;22.60;60.00;;;;;;5024055;28;20045;-61
2021/09/07 00:32:38;;;;;;;7.25;5.13;;;22.60;60.10;;;;;;5023197;28;20034;-60
2021/09/07 00:35:07;;;;;;;7.68;5.47;;;22.60;60.00;;;;;;5023555;28;20032;-61
2021/09/07 00:37:34;;;;;;;7.72;5.28;;;22.60;60.00;;;;;;5032947;28;20045;-61
2021/09/07 00:40:00;;;;;;;6.72;5.28;;;22.60;60.00;;;;;;5033495;28;20045;-61
2021/09/07 00:42:27;;;;;;;7.50;5.80;;;22.60;60.00;;;;;;5005781;28;20500;-61
2021/09/07 00:44:53;;;;;;;7.20;5.35;;;22.60;60.00;;;;;;5024654;28;20033;-60
2021/09/07 00:47:20;;;;;;;9.48;5.03;;;22.60;60.00;;;;;;5023338;28;20040;-60
2021/09/07 00:49:46;;;;;;;8.35;5.35;;;22.60;59.80;;;;;;5022910;28;20378;-61
2021/09/07 00:52:13;;;;;;;6.32;5.30;;;22.60;59.80;;;;;;5024606;28;20024;-61
2021/09/07 00:54:40;;;;;;;6.95;5.20;;;22.60;59.90;;;;;;5023311;28;20045;-61
2021/09/07 00:57:08;;;;;;;8.98;5.10;;;22.60;59.80;;;;;;5022939;28;20377;-61
2021/09/07 00:59:35;;;;;;;10.48;5.28;;;22.50;59.90;;;;;;5022297;28;20033;-61
2021/09/07 01:02:04;;;;;;;10.05;5.50;;;22.50;60.00;;;;;;5033444;28;20032;-62
2021/09/07 01:04:33;;;;;;;6.32;5.40;;;22.50;59.80;;;;;;5032912;28;20405;-61
2021/09/07 01:07:04;;;;;;;7.63;5.28;;;22.60;59.80;;;;;;5033118;28;20499;-61
2021/09/07 01:09:32;;;;;;;8.27;5.93;;;22.50;59.80;;;;;;5021993;28;20042;-60
2021/09/07 01:11:59;;;;;;;5.93;4.72;;;22.50;59.90;;;;;;5033368;28;20021;-61
2021/09/07 01:14:34;;;;;;;6.03;4.90;;;22.50;60.00;;;;;;5033639;28;20037;-60
2021/09/07 01:17:02;;;;;;;7.18;5.53;;;22.50;59.90;;;;;;5031170;28;20389;-61
2021/09/07 01:19:30;;;;;;;7.82;5.50;;;22.50;60.00;;;;;;5032324;28;20498;-60
2021/09/07 01:21:58;;;;;;;7.70;5.70;;;22.50;60.00;;;;;;5032824;28;20053;-60
2021/09/07 01:24:26;;;;;;;7.28;5.13;;;22.50;59.80;;;;;;5022658;28;20486;-61
2021/09/07 01:26:53;;;;;;;6.80;4.82;;;22.50;59.80;;;;;;5024059;28;20044;-61
2021/09/07 01:29:20;;;;;;;6.97;5.35;;;22.50;59.80;;;;;;5022557;28;20363;-61
2021/09/07 01:31:46;;;;;;;6.95;5.57;;;22.50;59.60;;;;;;5032596;28;20501;-61
2021/09/07 01:34:21;;;;;;;9.13;5.38;;;22.50;59.60;;;;;;5033923;28;20040;-61
2021/09/07 01:36:48;;;;;;;8.02;5.32;;;22.50;59.70;;;;;;5034182;28;20056;-60
2021/09/07 01:39:16;;;;;;;5.88;4.38;;;22.50;59.70;;;;;;5034039;28;20381;-61
2021/09/07 01:41:43;;;;;;;7.55;5.28;;;22.50;59.70;;;;;;5033674;28;20037;-61
2021/09/07 01:44:09;;;;;;;6.40;5.20;;;22.50;59.70;;;;;;5033892;28;20044;-60
2021/09/07 01:46:36;;;;;;;5.82;4.93;;;22.50;59.80;;;;;;5032487;28;20042;-60
2021/09/07 01:49:03;;;;;;;8.27;4.85;;;22.50;59.80;;;;;;5033004;28;20398;-60
2021/09/07 01:51:29;;;;;;;6.25;5.45;;;22.50;59.80;;;;;;5033766;28;20037;-61
2021/09/07 01:53:56;;;;;;;6.18;5.22;;;22.40;59.80;;;;;;5033555;28;20040;-61
2021/09/07 01:56:23;;;;;;;10.30;4.90;;;22.40;59.90;;;;;;5033700;28;20030;-61
2021/09/07 01:58:50;;;;;;;8.82;5.05;;;22.40;59.90;;;;;;5033360;28;20033;-62
2021/09/07 02:01:17;;;;;;;6.05;4.13;;;22.40;59.80;;;;;;5033782;28;20389;-61
2021/09/07 02:03:46;;;;;;;6.30;4.60;;;22.40;59.80;;;;;;5033513;28;20033;-61
2021/09/07 02:06:12;;;;;;;7.25;5.28;;;22.40;59.70;;;;;;5033636;28;20385;-61
2021/09/07 02:08:41;;;;;;;8.23;5.03;;;22.40;59.60;;;;;;5032236;28;20049;-61
2021/09/07 02:11:09;;;;;;;7.18;5.05;;;22.40;59.50;;;;;;5065512;28;20026;-61
2021/09/07 02:13:36;;;;;;;5.53;4.55;;;22.40;59.40;;;;;;5032969;28;20029;-62
2021/09/07 02:16:04;;;;;;;6.10;4.72;;;22.40;59.30;;;;;;5033435;28;20202;-61
2021/09/07 02:18:31;;;;;;;8.15;4.70;;;22.40;59.30;;;;;;5033151;28;20041;-61
2021/09/07 02:20:59;;;;;;;6.88;5.00;;;22.40;60.00;;;;;;5033247;28;20386;-61
2021/09/07 02:23:25;;;;;;;7.72;5.00;;;22.40;59.60;;;;;;5031560;28;20052;-61
2021/09/07 02:25:52;;;;;;;6.22;5.57;;;22.40;59.70;;;;;;5031614;28;20046;-62
2021/09/07 02:28:18;;;;;;;6.20;4.55;;;22.40;59.90;;;;;;5033131;28;20033;-61
2021/09/07 02:30:46;;;;;;;7.80;5.28;;;22.40;60.30;;;;;;5032681;28;20040;-61
2021/09/07 02:33:13;;;;;;;7.07;5.05;;;22.40;60.70;;;;;;5032623;28;20033;-61
2021/09/07 02:35:41;;;;;;;6.35;5.45;;;22.30;60.80;;;;;;5032806;28;20021;-61
2021/09/07 02:38:08;;;;;;;9.98;4.88;;;22.30;60.90;;;;;;5032954;28;20088;-61
2021/09/07 02:40:36;;;;;;;10.27;5.43;;;22.30;61.10;;;;;;5032542;28;20032;-62
2021/09/07 02:43:02;;;;;;;7.03;5.00;;;22.30;61.70;;;;;;5031713;28;20033;-61
2021/09/07 02:45:29;;;;;;;7.75;5.22;;;22.30;62.40;;;;;;5032933;28;20026;-62
2021/09/07 02:47:56;;;;;;;7.93;5.47;;;22.20;62.40;;;;;;5032665;28;20037;-61
2021/09/07 02:50:24;;;;;;;6.55;4.53;;;22.20;62.40;;;;;;5032559;28;20030;-64
2021/09/07 02:52:51;;;;;;;7.60;4.97;;;22.20;62.80;;;;;;5032683;28;20041;-61
2021/09/07 02:55:18;;;;;;;8.68;5.78;;;22.20;63.80;;;;;;5032575;28;20044;-59
2021/09/07 02:57:45;;;;;;;8.68;5.95;;;22.20;64.80;;;;;;5032742;28;20056;-60
2021/09/07 03:00:12;;;;;;;6.72;5.45;;;22.20;65.50;;;;;;5031597;28;20029;-60
2021/09/07 03:02:39;;;;;;;6.45;5.28;;;22.10;65.40;;;;;;5032348;28;20048;-60
2021/09/07 03:05:07;;;;;;;5.32;4.78;;;22.10;65.20;;;;;;5031319;28;20339;-61
2021/09/07 03:07:34;;;;;;;6.85;4.97;;;22.10;65.10;;;;;;5032302;28;20037;-61
2021/09/07 03:10:01;;;;;;;7.50;5.15;;;22.10;65.00;;;;;;5031041;28;20041;-60
2021/09/07 03:12:29;;;;;;;6.28;5.15;;;22.10;64.70;;;;;;5032260;28;20044;-60
2021/09/07 03:14:56;;;;;;;7.85;5.25;;;22.10;64.60;;;;;;5032937;28;20425;-60
2021/09/07 03:17:23;;;;;;;7.93;5.05;;;22.00;64.50;;;;;;5032357;28;20037;-60
2021/09/07 03:19:51;;;;;;;11.52;5.70;;;22.00;64.20;;;;;;5032022;28;20040;-61
2021/09/07 03:22:18;;;;;;;10.95;5.50;;;22.00;65.20;;;;;;5030796;28;20049;-61
2021/09/07 03:24:44;;;;;;;6.47;4.85;;;21.90;65.70;;;;;;5030904;28;20050;-61
2021/09/07 03:27:11;;;;;;;10.18;5.80;;;21.90;66.10;;;;;;5032327;28;20041;-60
2021/09/07 03:29:38;;;;;;;8.00;5.70;;;21.90;66.90;;;;;;5032127;28;20061;-61
2021/09/07 03:32:04;;;;;;;9.00;5.35;;;21.80;67.30;;;;;;5064166;28;20041;-61
2021/09/07 03:34:32;;;;;;;6.05;5.20;;;21.80;66.90;;;;;;5031933;28;20030;-61
2021/09/07 03:36:59;;;;;;;7.57;5.57;;;21.80;67.00;;;;;;5032113;28;20044;-60
2021/09/07 03:39:27;;;;;;;6.53;5.30;;;21.80;67.10;;;;;;5031844;28;20040;-61
2021/09/07 03:41:54;;;;;;;7.55;5.00;;;21.70;67.00;;;;;;5032506;28;20477;-60
2021/09/07 03:44:22;;;;;;;6.63;5.40;;;21.80;67.10;;;;;;5033506;28;20036;-61
2021/09/07 03:46:49;;;;;;;11.20;5.30;;;21.70;67.10;;;;;;5036301;28;20049;-60
2021/09/07 03:49:16;;;;;;;6.70;5.57;;;21.70;67.10;;;;;;5035740;28;20981;-60
2021/09/07 03:51:46;;;;;;;7.35;5.82;;;21.60;67.40;;;;;;5035760;28;20359;-60
2021/09/07 03:54:14;;;;;;;6.70;4.97;;;21.60;67.80;;;;;;5034744;28;20037;-60
2021/09/07 03:56:42;;;;;;;7.05;4.72;;;21.60;68.10;;;;;;5036261;28;20040;-60
2021/09/07 03:59:09;;;;;;;6.35;5.05;;;21.50;67.80;;;;;;5034915;28;20045;-60
2021/09/07 04:01:36;;;;;;;6.10;5.43;;;21.50;67.60;;;;;;5035770;28;20033;-61
2021/09/07 04:04:04;;;;;;;6.95;5.45;;;21.50;67.70;;;;;;5035752;28;20041;-60
2021/09/07 04:06:31;;;;;;;7.72;5.63;;;21.40;68.20;;;;;;5035703;28;20477;-60
2021/09/07 04:08:58;;;;;;;14.45;6.10;;;21.40;68.40;;;;;;5036056;28;20036;-60
2021/09/07 04:11:24;;;;;;;16.02;6.32;;;21.40;68.70;;;;;;5034212;28;20054;-60
2021/09/07 04:13:51;;;;;;;10.10;5.18;;;21.40;68.80;;;;;;5035556;28;20029;-60
2021/09/07 04:16:18;;;;;;;10.68;5.25;;;21.40;68.60;;;;;;5035310;28;20037;-61
2021/09/07 04:18:45;;;;;;;7.40;5.13;;;21.30;68.80;;;;;;5035265;28;20417;-61
2021/09/07 04:21:12;;;;;;;10.07;4.93;;;21.30;68.80;;;;;;5035611;28;20481;-60
2021/09/07 04:23:39;;;;;;;6.32;5.25;;;21.30;68.60;;;;;;5034911;28;20060;-61
2021/09/07 04:26:06;;;;;;;9.52;5.43;;;21.30;68.30;;;;;;5035559;28;20033;-61
2021/09/07 04:28:32;;;;;;;6.55;5.60;;;21.30;67.80;;;;;;5034856;28;20505;-61
2021/09/07 04:30:58;;;;;;;7.85;5.05;;;21.30;67.60;;;;;;5035565;28;20410;-61
2021/09/07 04:33:25;;;;;;;9.00;5.78;;;21.30;67.70;;;;;;5035079;28;20473;-61
2021/09/07 04:35:51;;;;;;;6.95;5.18;;;21.30;68.00;;;;;;5035037;28;20406;-61
2021/09/07 04:38:18;;;;;;;6.65;5.72;;;21.30;68.20;;;;;;5034862;28;20037;-61
2021/09/07 04:40:44;;;;;;;7.72;5.25;;;21.20;68.50;;;;;;5035217;28;20037;-61
2021/09/07 04:43:11;;;;;;;9.50;5.97;;;21.20;68.90;;;;;;5034931;28;20382;-61
2021/09/07 04:45:38;;;;;;;9.40;5.38;;;21.20;69.20;;;;;;5017593;28;20048;-62
2021/09/07 04:48:04;;;;;;;9.80;5.88;;;21.20;69.30;;;;;;5034554;28;20034;-62
2021/09/07 04:50:31;;;;;;;7.38;5.88;;;21.20;70.20;;;;;;5066954;28;20041;-62
2021/09/07 04:52:58;;;;;;;6.63;5.13;;;21.10;69.70;;;;;;5035388;28;20041;-61
2021/09/07 04:55:24;;;;;;;9.98;5.32;;;21.10;70.10;;;;;;5034245;28;20496;-61
2021/09/07 04:57:51;;;;;;;13.00;5.82;;;21.10;70.50;;;;;;5034804;28;20489;-61
2021/09/07 05:00:18;;;;;;;12.57;6.75;;;21.10;70.60;;;;;;5034529;28;20025;-61
2021/09/07 05:02:44;;;;;;;9.55;5.55;;;21.10;70.90;;;;;;5033353;28;20056;-61
2021/09/07 05:05:11;;;;;;;9.63;5.78;;;21.10;70.70;;;;;;5034549;28;20052;-61
2021/09/07 05:07:38;;;;;;;11.55;6.15;;;21.10;70.80;;;;;;5034828;28;20035;-61
2021/09/07 05:10:06;;;;;;;7.25;6.20;;;21.10;70.70;;;;;;5033265;28;20030;-61
2021/09/07 05:12:32;;;;;;;8.32;5.28;;;21.10;70.90;;;;;;5034673;28;20500;-61
2021/09/07 05:14:58;;;;;;;9.40;5.50;;;21.10;71.10;;;;;;5034204;28;20044;-62
2021/09/07 05:17:25;;;;;;;9.35;5.53;;;21.10;72.20;;;;;;5034276;28;20049;-61
2021/09/07 05:19:52;;;;;;;7.15;5.70;;;21.10;71.30;;;;;;5034809;28;20046;-61
2021/09/07 05:22:19;;;;;;;8.75;5.82;;;21.10;71.30;;;;;;5034102;28;20072;-61
2021/09/07 05:24:45;;;;;;;8.15;5.57;;;21.10;71.60;;;;;;5034331;28;20040;-61
2021/09/07 05:27:12;;;;;;;8.70;6.50;;;21.00;71.70;;;;;;5034394;28;20053;-61
2021/09/07 05:29:38;;;;;;;7.38;6.40;;;21.10;71.70;;;;;;5032961;28;20477;-62
2021/09/07 05:32:05;;;;;;;7.45;5.90;;;21.10;71.80;;;;;;5034188;28;20029;-61
2021/09/07 05:34:32;;;;;;;12.10;5.53;;;21.10;71.70;;;;;;5033967;28;20045;-61
2021/09/07 05:36:58;;;;;;;11.10;6.05;;;21.10;71.50;;;;;;5034035;28;20041;-61
2021/09/07 05:39:25;;;;;;;9.77;5.32;;;21.20;71.40;;;;;;5031736;28;20470;-61
2021/09/07 05:41:52;;;;;;;7.38;5.20;;;21.20;71.00;;;;;;5033116;28;20385;-60
2021/09/07 05:44:19;;;;;;;8.88;5.70;;;21.20;70.40;;;;;;5033866;28;20033;-59
2021/09/07 05:46:46;;;;;;;6.75;5.50;;;21.20;70.30;;;;;;5031868;28;20041;-60
2021/09/07 05:49:12;;;;;;;9.60;6.55;;;21.20;70.90;;;;;;5032272;28;20056;-63
2021/09/07 05:51:41;;;;;;;8.68;5.25;;;21.20;71.40;;;;;;5032724;28;20036;-56
2021/09/07 05:54:08;;;;;;;9.88;6.13;;;21.20;71.50;;;;;;5033231;28;20370;-56
2021/09/07 05:56:34;;;;;;;11.90;5.85;;;21.20;71.20;;;;;;5034073;28;20391;-55
2021/09/07 05:59:00;;;;;;;11.52;6.22;;;21.20;71.30;;;;;;5033214;28;20029;-56
2021/09/07 06:01:27;;;;;;;8.45;5.88;;;21.20;71.40;;;;;;5031609;28;20048;-57
2021/09/07 06:03:53;;;;;;;10.68;6.25;;;21.20;71.90;;;;;;5033451;28;20037;-60
2021/09/07 06:06:21;;;;;;;11.98;6.25;;;21.20;72.90;;;;;;5032745;28;20044;-62
2021/09/07 06:08:48;;;;;;;14.20;6.80;;;21.20;72.60;;;;;;5032810;28;20359;-59
2021/09/07 06:11:16;;;;;;;11.90;6.35;;;21.30;72.80;;;;;;5033217;28;20030;-59
2021/09/07 06:13:43;;;;;;;11.30;6.82;;;21.30;72.60;;;;;;5033231;28;20053;-58
2021/09/07 06:16:09;;;;;;;17.38;7.15;;;21.30;72.50;;;;;;5032650;28;20052;-59
2021/09/07 06:18:36;;;;;;;8.68;6.25;;;21.30;73.00;;;;;;5031594;28;20057;-59
2021/09/07 06:21:02;;;;;;;15.15;6.55;;;21.30;73.10;;;;;;5032478;28;20030;-58
2021/09/07 06:23:28;;;;;;;11.32;6.25;;;21.30;73.00;;;;;;5032080;28;20052;-58
2021/09/07 06:25:58;;;;;;;10.55;6.32;;;21.40;73.20;;;;;;5031512;28;20370;-59
2021/09/07 06:28:26;;;;;;;8.83;6.70;;;21.40;73.10;;;;;;5032563;28;20059;-59
2021/09/07 06:30:53;;;;;;;10.02;7.03;;;21.40;72.80;;;;;;5032632;28;20355;-62
2021/09/07 06:33:19;;;;;;;13.57;7.03;;;21.50;72.60;;;;;;5031741;28;20056;-59
2021/09/07 06:35:46;;;;;;;8.75;6.97;;;21.50;72.40;;;;;;5032102;28;20042;-59
2021/09/07 06:38:12;;;;;;;9.95;7.05;;;21.60;72.40;;;;;;5031754;28;20040;-59
2021/09/07 06:40:40;;;;;;;13.25;7.18;;;21.60;72.10;;;;;;5031701;28;20026;-59
2021/09/07 06:43:07;;;;;;;9.77;6.90;;;21.60;72.20;;;;;;5032952;28;20489;-58
2021/09/07 06:45:33;;;;;;;11.63;6.30;;;21.70;72.40;;;;;;5030279;28;20113;-58
2021/09/07 06:48:00;;;;;;;15.27;6.63;;;21.70;72.40;;;;;;5031566;28;20044;-57
2021/09/07 06:50:26;;;;;;;10.40;6.53;;;21.70;72.30;;;;;;5031967;28;20089;-58
2021/09/07 06:52:53;;;;;;;13.63;6.72;;;21.70;72.30;;;;;;5031748;28;20041;-59
2021/09/07 06:55:19;;;;;;;10.27;7.03;;;21.80;72.30;;;;;;5032327;28;20041;-58
2021/09/07 06:57:46;;;;;;;15.02;7.07;;;21.80;71.80;;;;;;5032461;28;20060;-58
2021/09/07 07:00:13;;;;;;;9.10;6.30;;;21.90;70.90;;;;;;5032033;28;20040;-59
2021/09/07 07:02:40;;;;;;;11.57;5.13;;;21.90;70.20;;;;;;5032696;28;20040;-58
2021/09/07 07:05:08;;;;;;;10.30;6.40;;;21.90;69.70;;;;;;5032652;28;20049;-58
2021/09/07 07:07:34;;;;;;;8.60;5.88;;;22.00;69.90;;;;;;5031744;28;20482;-59
2021/09/07 07:10:02;;;;;;;14.52;7.03;;;22.00;69.80;;;;;;5032373;28;20041;-58
2021/09/07 07:12:28;;;;;;;11.95;6.00;;;22.00;70.30;;;;;;5032108;28;20032;-59
2021/09/07 07:14:54;;;;;;;7.55;5.82;;;22.10;70.50;;;;;;5031898;28;20029;-59
2021/09/07 07:17:21;;;;;;;7.80;5.60;;;22.10;70.10;;;;;;5031557;28;20042;-60
2021/09/07 07:19:50;;;;;;;9.32;6.30;;;22.10;68.40;;;;;;5030728;28;20188;-60
2021/09/07 07:22:17;;;;;;;12.25;6.00;;;22.20;67.50;;;;;;5030347;28;20707;-58
2021/09/07 07:24:43;;;;;;;6.68;5.68;;;22.20;67.10;;;;;;5031487;28;20042;-59
2021/09/07 07:27:10;;;;;;;8.68;5.70;;;22.30;66.20;;;;;;5031908;28;20037;-62
2021/09/07 07:29:36;;;;;;;6.32;5.35;;;22.20;65.00;;;;;;5031212;28;20033;-59
2021/09/07 07:32:03;;;;;;;9.70;6.05;;;22.30;65.80;;;;;;5032348;28;20041;-60
2021/09/07 07:34:29;;;;;;;8.48;6.78;;;22.30;67.70;;;;;;5032172;28;20045;-59
2021/09/07 07:36:57;;;;;;;9.77;5.90;;;22.30;67.70;;;;;;5031171;28;20049;-59
2021/09/07 07:39:24;;;;;;;16.83;6.03;;;22.40;67.70;;;;;;5032122;28;20029;-60
2021/09/07 07:41:50;;;;;;;20.02;7.47;;;22.40;68.30;;;;;;5032434;28;20037;-59
2021/09/07 07:44:17;;;;;;;8.90;6.93;;;22.40;67.00;;;;;;5030791;28;20042;-59
2021/09/07 07:46:44;;;;;;;13.75;6.88;;;22.40;67.40;;;;;;5031279;28;20049;-60
2021/09/07 07:49:10;;;;;;;10.57;7.80;;;22.40;67.60;;;;;;5030657;28;20037;-60
2021/09/07 07:51:36;;;;;;;8.60;5.97;;;22.50;68.50;;;;;;5031488;28;20505;-60
2021/09/07 07:54:07;;;;;;;14.25;7.47;;;22.50;68.20;;;;;;5032063;28;20382;-60
2021/09/07 07:56:34;;;;;;;;;;;22.60;68.20;;;;;;5032943;28;20034;-59
2021/09/07 07:59:00;;;;;;;12.15;6.88;;;22.60;67.50;;;;;;5031744;28;19909;-59
2021/09/07 08:01:27;;;;;;;13.55;6.90;;;22.70;67.00;;;;;;5031963;28;20381;-60
2021/09/07 08:03:54;;;;;;;10.65;7.30;;;22.70;66.90;;;;;;5031781;28;20049;-59
2021/09/07 08:06:20;;;;;;;7.95;6.22;;;22.70;66.20;;;;;;5031539;28;20041;-59
2021/09/07 08:08:47;;;;;;;18.67;6.90;;;22.80;65.80;;;;;;5032445;28;20508;-59
2021/09/07 08:11:13;;;;;;;11.95;6.53;;;22.80;65.70;;;;;;5031934;28;20041;-58
2021/09/07 08:13:40;;;;;;;10.43;6.75;;;22.90;65.50;;;;;;5031619;28;20052;-60
2021/09/07 08:16:06;;;;;;;9.88;6.47;;;23.00;65.30;;;;;;5031021;28;20045;-59
2021/09/07 08:18:33;;;;;;;9.75;6.50;;;23.00;64.90;;;;;;5030259;28;20303;-60
2021/09/07 08:20:59;;;;;;;8.13;6.40;;;23.10;64.50;;;;;;5031171;28;20037;-59
2021/09/07 08:23:26;;;;;;;8.35;5.63;;;23.10;64.30;;;;;;5031992;28;20060;-59
2021/09/07 08:25:53;;;;;;;10.23;5.97;;;23.20;64.00;;;;;;5031874;28;20041;-60
2021/09/07 08:28:19;;;;;;;8.43;5.25;;;23.20;63.30;;;;;;5031278;28;20036;-60
2021/09/07 08:30:46;;;;;;;8.32;6.18;;;23.30;63.00;;;;;;5034170;28;20493;-60
2021/09/07 08:33:14;;;;;;;7.20;6.00;;;23.50;62.50;;;;;;5035191;28;20492;-60
2021/09/07 08:35:42;;;;;;;10.40;5.88;;;23.50;61.80;;;;;;5067136;28;20038;-58
2021/09/07 08:38:09;;;;;;;9.38;6.15;;;23.60;61.50;;;;;;5035150;28;20041;-58
2021/09/07 08:40:36;;;;;;;13.93;6.18;;;23.60;60.50;;;;;;5034013;28;20125;-59
2021/09/07 08:43:04;;;;;;;7.57;5.32;;;23.60;60.10;;;;;;5035016;28;20033;-59
2021/09/07 08:45:31;;;;;;;11.13;5.55;;;23.60;59.80;;;;;;5035157;28;20045;-59
2021/09/07 08:47:59;;;;;;;8.73;6.22;;;23.70;59.50;;;;;;5035139;28;20033;-59
2021/09/07 08:50:25;;;;;;;8.77;5.78;;;23.80;59.00;;;;;;5034544;28;20390;-59
2021/09/07 08:52:59;;;;;;;13.15;5.43;;;23.80;58.50;;;;;;5035013;28;20253;-59
2021/09/07 08:55:30;;;;;;;9.85;5.95;;;23.80;58.00;;;;;;5033067;28;20378;-60
2021/09/07 08:57:56;;;;;;;7.65;6.07;;;23.90;57.50;;;;;;5033442;28;20478;-58
2021/09/07 09:00:28;;;;;;;6.18;5.00;;;23.90;57.50;;;;;;5034067;28;20033;-60
2021/09/07 09:02:54;;;;;;;7.40;5.97;;;23.90;57.00;;;;;;5034655;28;20045;-59
2021/09/07 09:05:29;;;;;;;14.45;5.82;;;24.00;57.10;;;;;;5034487;28;20477;-60
2021/09/07 09:07:57;;;;;;;10.55;6.18;;;24.10;57.20;;;;;;5034295;28;20041;-58
2021/09/07 09:10:25;;;;;;;7.30;5.38;;;24.10;57.10;;;;;;5034817;28;20048;-58
2021/09/07 09:13:08;;;;;;;7.78;6.03;;;24.20;57.20;;;;;;5034571;28;20042;-58
2021/09/07 09:15:35;;;;;;;6.13;5.07;;;24.20;57.20;;;;;;5034757;28;20045;-59
2021/09/07 09:18:10;;;;;;;11.45;6.00;;;24.30;57.60;;;;;;5034910;28;20053;-59
2021/09/07 09:20:40;;;;;;;7.15;5.78;;;24.40;57.70;;;;;;5034511;28;20445;-59
2021/09/07 09:23:09;;;;;;;6.80;4.90;;;24.40;57.40;;;;;;5034644;28;20054;-59
2021/09/07 09:25:38;;;;;;;6.93;5.82;;;24.40;57.30;;;;;;5034147;28;20052;-58
2021/09/07 09:28:04;;;;;;;8.85;6.13;;;24.50;56.60;;;;;;5034848;28;20049;-59
2021/09/07 09:30:37;;;;;;;13.27;6.18;;;24.60;55.60;;;;;;5034523;28;20485;-59
2021/09/07 09:33:04;;;;;;;8.57;6.10;;;24.60;55.40;;;;;;5034863;28;20045;-59
2021/09/07 09:35:30;;;;;;;8.25;5.65;;;24.60;54.50;;;;;;5034034;28;20045;-59
2021/09/07 09:38:02;;;;;;;8.43;5.50;;;24.60;53.50;;;;;;5034230;28;20046;-59
2021/09/07 09:40:30;;;;;;;7.60;5.53;;;24.70;53.40;;;;;;5034308;28;20052;-59
2021/09/07 09:43:19;;;;;;;7.38;5.72;;;24.70;53.60;;;;;;5034105;28;20041;-59
2021/09/07 09:45:46;;;;;;;8.60;5.57;;;24.80;53.20;;;;;;5030169;28;20046;-59
2021/09/07 09:48:27;;;;;;;9.32;5.70;;;24.90;52.80;;;;;;5033512;28;20057;-58
2021/09/07 09:50:57;;;;;;;8.65;5.85;;;25.00;51.90;;;;;;5033858;28;20045;-58
2021/09/07 09:53:25;;;;;;;19.23;5.97;;;25.00;51.50;;;;;;5033674;28;20040;-58
2021/09/07 09:55:54;;;;;;;10.10;5.90;;;25.10;51.80;;;;;;5033962;28;20387;-58
2021/09/07 09:58:23;;;;;;;8.35;6.00;;;25.20;51.70;;;;;;5033681;28;20508;-58
2021/09/07 10:00:51;;;;;;;8.88;5.47;;;25.30;52.00;;;;;;5033851;28;20060;-61
2021/09/07 10:03:18;;;;;;;11.57;6.45;;;25.30;51.90;;;;;;5033612;28;20046;-59
2021/09/07 10:05:46;;;;;;;9.40;6.13;;;25.40;51.60;;;;;;5033950;28;20044;-59
2021/09/07 10:08:15;;;;;;;7.85;5.72;;;25.40;51.50;;;;;;5032924;28;20061;-59
2021/09/07 10:11:07;;;;;;;10.18;6.70;;;25.50;51.60;;;;;;5033332;28;20076;-59
2021/09/07 10:13:35;;;;;;;9.70;6.05;;;25.30;50.10;;;;;;5031833;28;20051;-59
2021/09/07 10:16:23;;;;;;;8.48;6.43;;;25.40;50.80;;;;;;5033446;28;20034;-60
2021/09/07 10:18:52;;;;;;;7.65;5.93;;;25.50;50.40;;;;;;5032624;28;20383;-60
2021/09/07 10:26:39;;;;;;;10.20;6.03;;;25.60;49.20;;;;;;5033390;28;20037;-59
2021/09/07 10:29:07;;;;;;;10.73;7.40;;;25.60;49.80;;;;;;5033053;28;20049;-58
2021/09/07 10:31:39;;;;;;;9.63;6.75;;;25.70;49.60;;;;;;5033142;28;20041;-58
2021/09/07 10:34:06;;;;;;;13.57;7.25;;;25.60;49.20;;;;;;5032883;28;20029;-59
2021/09/07 10:36:36;;;;;;;11.55;7.40;;;25.60;49.30;;;;;;5032915;28;20045;-57
2021/09/07 10:39:07;;;;;;;12.48;6.68;;;25.60;49.00;;;;;;5032991;28;20025;-58
2021/09/07 10:41:34;;;;;;;12.88;6.32;;;25.60;48.60;;;;;;5033114;28;20026;-59
2021/09/07 10:44:16;;;;;;;9.30;6.15;;;25.70;48.80;;;;;;5032718;28;20371;-59
2021/09/07 10:46:56;;;;;;;10.48;6.53;;;25.80;49.00;;;;;;5032666;28;20052;-59
2021/09/07 10:49:44;;;;;;;14.53;8.87;;;25.90;47.90;;;;;;5032971;28;20056;-59
2021/09/07 10:52:19;;;;;;;15.93;8.43;;;25.90;48.20;;;;;;5031827;28;20049;-58
2021/09/07 10:54:53;;;;;;;13.80;7.70;;;26.00;46.80;;;;;;5032377;28;20053;-61
2021/09/07 10:57:35;;;;;;;12.45;8.73;;;26.00;46.20;;;;;;5033367;28;20029;-59
2021/09/07 11:00:26;;;;;;;21.73;14.48;;;26.00;46.10;;;;;;5032555;28;20037;-60
2021/09/07 11:03:01;;;;;;;10.73;8.55;;;26.10;47.30;;;;;;5048053;28;20037;-60
2021/09/07 11:05:28;;;;;;;17.40;9.52;;;26.20;46.40;;;;;;5032079;28;20105;-60
2021/09/07 11:08:04;;;;;;;17.30;13.75;;;26.00;47.20;;;;;;5032480;28;20045;-60
2021/09/07 11:10:38;;;;;;;11.60;8.07;;;26.00;47.80;;;;;;5031278;28;20474;-72
2021/09/07 11:13:08;;;;;;;11.15;10.02;;;26.10;47.40;;;;;;5032569;28;20484;-60
2021/09/07 11:15:39;;;;;;;14.38;9.98;;;26.20;47.60;;;;;;5031761;28;20021;-62
2021/09/07 11:18:10;;;;;;;11.90;9.65;;;26.20;47.50;;;;;;5028827;28;20470;-60
2021/09/07 11:20:39;;;;;;;20.67;17.85;;;26.30;47.60;;;;;;5031818;28;20026;-60
2021/09/07 11:23:16;;;;;;;13.48;12.07;;;26.40;48.30;;;;;;5031145;28;20406;-59
2021/09/07 11:25:45;;;;;;;14.88;10.15;;;26.40;47.40;;;;;;5032323;28;20048;-61
2021/09/07 11:28:13;;;;;;;21.55;19.20;;;26.50;47.40;;;;;;5032413;28;20033;-61
2021/09/07 11:30:51;;;;;;;17.55;15.05;;;26.50;48.20;;;;;;5032470;28;20048;-60
2021/09/07 11:33:26;;;;;;;10.35;9.02;;;26.60;48.10;;;;;;5031736;28;20053;-60
2021/09/07 11:35:55;;;;;;;13.25;11.57;;;26.50;46.30;;;;;;5031460;28;20045;-59
2021/09/07 11:38:24;;;;;;;16.50;13.68;;;26.60;46.60;;;;;;5032385;28;20037;-59
2021/09/07 11:40:57;;;;;;;18.35;12.18;;;26.60;46.90;;;;;;5031974;28;20037;-60
2021/09/07 11:43:35;;;;;;;12.80;9.55;;;26.70;46.70;;;;;;5029662;28;20025;-60
2021/09/07 11:46:11;;;;;;;20.65;17.67;;;26.70;46.20;;;;;;5029841;28;20044;-61
2021/09/07 11:48:40;;;;;;;18.85;15.65;;;26.80;46.90;;;;;;5028952;28;20482;-60
2021/09/07 11:51:08;;;;;;;16.23;14.18;;;26.80;46.80;;;;;;5030856;28;20385;-60
2021/09/07 11:53:35;;;;;;;23.48;17.95;;;26.70;46.50;;;;;;5030733;28;20034;-60
2021/09/07 11:56:03;;;;;;;20.60;17.40;;;26.70;46.90;;;;;;5030873;28;20816;-61
2021/09/07 11:58:39;;;;;;;14.55;12.75;;;26.70;46.70;;;;;;5027585;28;20385;-59
2021/09/07 12:01:16;;;;;;;14.98;10.52;;;26.80;46.70;;;;;;5029937;28;20052;-61
2021/09/07 12:03:49;;;;;;;19.95;16.90;;;26.80;46.20;;;;;;5024335;28;20026;-59
2021/09/07 12:06:36;;;;;;;16.50;9.75;;;26.90;46.00;;;;;;5025659;28;20045;-60
2021/09/07 12:09:22;;;;;;;21.40;16.38;;;26.80;45.60;;;;;;5025645;28;20046;-61
2021/09/07 12:12:08;;;;;;;18.95;13.98;;;26.90;45.80;;;;;;5025041;28;20049;-60
2021/09/07 12:14:45;;;;;;;15.32;10.38;;;27.00;46.10;;;;;;5026428;28;20045;-60
2021/09/07 12:17:17;;;;;;;12.60;10.55;;;27.00;45.20;;;;;;5026816;28;20030;-60
2021/09/07 12:19:47;;;;;;;21.02;13.93;;;27.00;45.10;;;;;;5024557;28;20486;-60
2021/09/07 12:22:27;;;;;;;12.63;9.05;;;27.00;45.40;;;;;;5023773;28;20042;-60
2021/09/07 12:25:04;;;;;;;11.02;8.73;;;27.10;45.60;;;;;;5026201;28;20033;-60
2021/09/07 12:27:37;;;;;;;10.45;8.32;;;27.10;45.00;;;;;;5026279;28;20047;-60
2021/09/07 12:30:16;;;;;;;16.73;8.45;;;27.10;45.10;;;;;;5027153;28;20470;-60
2021/09/07 12:32:45;;;;;;;10.68;7.97;;;27.10;45.30;;;;;;5025691;28;20021;-60
2021/09/07 12:35:35;;;;;;;10.70;8.10;;;27.20;45.20;;;;;;5024841;28;20034;-60
2021/09/07 12:38:06;;;;;;;14.25;7.95;;;27.20;45.00;;;;;;5025754;28;20279;-60
2021/09/07 12:40:33;;;;;;;11.85;7.55;;;27.30;44.90;;;;;;5023931;28;20044;-60
2021/09/07 12:43:09;;;;;;;9.88;8.07;;;27.30;44.10;;;;;;5021850;28;20049;-60
2021/09/07 12:45:35;;;;;;;12.82;8.10;;;27.30;44.30;;;;;;5022684;28;20467;-60
2021/09/07 12:48:02;;;;;;;9.90;7.82;;;27.20;44.80;;;;;;5015277;28;20053;-60
2021/09/07 12:50:30;;;;;;;10.40;7.05;;;27.20;44.80;;;;;;5015208;28;20501;-59
2021/09/07 12:52:59;;;;;;;8.85;7.53;;;27.30;44.60;;;;;;5015468;28;20029;-59
2021/09/07 12:55:26;;;;;;;10.20;6.97;;;27.30;44.80;;;;;;5015586;28;20033;-59